createdAt,value
2018-02-08T00:01:17.845Z,69.70
2018-02-08T00:03:46.209Z,69.80
2018-02-08T00:06:13.872Z,69.80
2018-02-08T00:08:42.215Z,69.80
2018-02-08T00:11:10.672Z,69.90
2018-02-08T00:13:38.240Z,70.00
2018-02-08T00:16:05.862Z,70.00
2018-02-08T00:18:33.489Z,70.00
2018-02-08T00:21:01.051Z,70.00
2018-02-08T00:23:28.670Z,70.40
2018-02-08T00:25:56.242Z,70.10
2018-02-08T00:28:24.733Z,70.20
2018-02-08T00:30:52.310Z,70.40
2018-02-08T00:33:20.785Z,70.40
2018-02-08T00:35:48.384Z,70.40
2018-02-08T00:38:16.764Z,70.30
2018-02-08T00:40:44.383Z,70.20
2018-02-08T00:43:12.071Z,70.40
2018-02-08T00:45:40.484Z,70.40
2018-02-08T00:48:08.121Z,70.40
2018-02-08T00:50:36.628Z,70.10
2018-02-08T00:53:04.308Z,70.20
2018-02-08T00:55:31.887Z,70.30
2018-02-08T00:57:59.498Z,70.30
2018-02-08T01:00:27.067Z,70.40
2018-02-08T01:02:54.646Z,70.40
2018-02-08T01:05:22.267Z,70.40
2018-02-08T01:07:49.861Z,70.40
2018-02-08T01:10:17.796Z,70.40
2018-02-08T01:12:45.415Z,70.20
2018-02-08T01:15:13.005Z,70.40
2018-02-08T01:17:40.580Z,70.60
2018-02-08T01:20:08.962Z,70.80
2018-02-08T01:22:36.551Z,70.90
2018-02-08T01:25:04.942Z,70.80
2018-02-08T01:27:32.532Z,70.70
2018-02-08T01:30:00.144Z,70.80
2018-02-08T01:32:27.722Z,70.90
2018-02-08T01:34:55.308Z,71.40
2018-02-08T01:37:22.943Z,71.50
2018-02-08T01:39:50.509Z,71.30
2018-02-08T01:42:18.119Z,71.40
2018-02-08T01:44:46.486Z,71.40
2018-02-08T01:47:14.791Z,71.50
2018-02-08T01:49:46.246Z,71.40
2018-02-08T01:52:13.814Z,71.20
2018-02-08T01:54:41.392Z,71.10
2018-02-08T01:57:09.015Z,71.20
2018-02-08T01:59:36.621Z,71.30
2018-02-08T02:02:04.238Z,71.40
2018-02-08T02:04:31.840Z,71.20
2018-02-08T02:06:59.464Z,71.10
2018-02-08T02:09:27.095Z,70.80
2018-02-08T02:11:54.675Z,70.60
2018-02-08T02:14:23.080Z,70.40
2018-02-08T02:16:50.648Z,70.50
2018-02-08T02:19:18.266Z,70.50
2018-02-08T02:21:45.893Z,70.50
2018-02-08T02:24:13.489Z,70.60
2018-02-08T02:26:41.825Z,70.20
2018-02-08T02:29:09.459Z,70.20
2018-02-08T02:31:37.065Z,70.20
2018-02-08T02:34:05.431Z,70.30
2018-02-08T02:36:33.006Z,70.30
2018-02-08T02:39:00.639Z,70.40
2018-02-08T02:41:29.074Z,70.50
2018-02-08T02:43:57.467Z,70.70
2018-02-08T02:46:25.143Z,70.70
2018-02-08T02:48:52.740Z,70.50
2018-02-08T02:51:21.126Z,70.50
2018-02-08T02:53:48.768Z,70.50
2018-02-08T02:56:16.357Z,70.60
2018-02-08T02:58:43.958Z,70.60
2018-02-08T03:01:11.543Z,70.60
2018-02-08T03:03:39.152Z,70.60
2018-02-08T03:06:06.753Z,70.40
2018-02-08T03:08:34.349Z,70.40
2018-02-08T03:11:01.970Z,70.40
2018-02-08T03:13:29.565Z,70.40
2018-02-08T03:15:57.926Z,70.10
2018-02-08T03:18:25.529Z,70.10
2018-02-08T03:20:53.111Z,70.20
2018-02-08T03:23:20.964Z,70.20
2018-02-08T03:25:49.290Z,70.30
2018-02-08T03:28:17.634Z,70.40
2018-02-08T03:30:46.111Z,70.40
2018-02-08T03:33:13.681Z,70.40
2018-02-08T03:35:41.248Z,70.30
2018-02-08T03:38:09.053Z,70.20
2018-02-08T03:40:37.377Z,70.10
2018-02-08T03:43:05.087Z,70.10
2018-02-08T03:45:32.690Z,69.70
2018-02-08T03:48:00.316Z,70.00
2018-02-08T03:50:27.929Z,70.10
2018-02-08T03:52:55.518Z,70.00
2018-02-08T03:55:23.101Z,70.20
2018-02-08T03:57:51.621Z,70.10
2018-02-08T04:00:19.227Z,70.10
2018-02-08T04:02:46.836Z,70.10
2018-02-08T04:05:14.420Z,70.10
2018-02-08T04:07:42.008Z,70.10
2018-02-08T04:10:09.606Z,70.00
2018-02-08T04:12:37.204Z,70.00
2018-02-08T04:15:04.878Z,70.10
2018-02-08T04:17:33.256Z,70.00
2018-02-08T04:20:00.854Z,70.00
2018-02-08T04:22:28.443Z,69.70
2018-02-08T04:24:56.037Z,69.80
2018-02-08T04:27:23.663Z,70.00
2018-02-08T04:29:51.371Z,70.10
2018-02-08T04:32:18.959Z,70.20
2018-02-08T04:34:46.570Z,70.40
2018-02-08T04:37:14.199Z,70.10
2018-02-08T04:39:53.476Z,70.10
2018-02-08T04:42:28.519Z,70.10
2018-02-08T04:45:07.846Z,70.00
2018-02-08T04:50:37.978Z,69.90
2018-02-08T04:53:05.566Z,69.70
2018-02-08T04:55:33.112Z,69.70
2018-02-08T04:58:00.701Z,69.90
2018-02-08T05:00:28.260Z,69.60
2018-02-08T05:02:58.684Z,70.00
2018-02-08T05:05:27.058Z,70.00
2018-02-08T05:07:54.584Z,70.00
2018-02-08T05:10:22.200Z,70.20
2018-02-08T05:12:49.815Z,70.50
2018-02-08T05:15:17.364Z,70.40
2018-02-08T05:17:44.933Z,70.20
2018-02-08T05:20:12.482Z,70.30
2018-02-08T05:22:40.786Z,69.90
2018-02-08T05:25:08.372Z,69.90
2018-02-08T05:27:35.927Z,70.00
2018-02-08T05:30:03.476Z,70.00
2018-02-08T05:32:31.072Z,70.20
2018-02-08T05:34:58.616Z,70.10
2018-02-08T05:37:26.159Z,70.10
2018-02-08T05:39:54.602Z,70.30
2018-02-08T05:42:22.257Z,70.30
2018-02-08T05:44:49.935Z,70.30
2018-02-08T05:47:17.520Z,70.20
2018-02-08T05:49:45.126Z,70.40
2018-02-08T05:52:12.814Z,70.80
2018-02-08T05:54:41.149Z,70.50
2018-02-08T05:57:09.646Z,70.60
2018-02-08T05:59:37.245Z,70.60
2018-02-08T06:02:04.798Z,70.60
2018-02-08T06:04:33.143Z,71.00
2018-02-08T06:07:01.469Z,70.80
2018-02-08T06:09:29.027Z,70.80
2018-02-08T06:11:56.749Z,70.70
2018-02-08T06:14:24.352Z,70.70
2018-02-08T06:16:52.125Z,70.60
2018-02-08T06:19:21.515Z,70.80
2018-02-08T06:21:49.133Z,70.80
2018-02-08T06:24:17.571Z,71.20
2018-02-08T06:26:45.159Z,71.20
2018-02-08T06:29:12.769Z,71.50
2018-02-08T06:31:40.702Z,71.00
2018-02-08T06:34:08.406Z,71.10
2018-02-08T06:36:36.129Z,71.40
2018-02-08T06:39:03.801Z,71.40
2018-02-08T06:41:31.562Z,71.80
2018-02-08T06:43:59.888Z,71.70
2018-02-08T06:46:27.440Z,71.80
2018-02-08T06:48:55.060Z,72.00
2018-02-08T06:51:22.635Z,72.00
2018-02-08T06:53:50.209Z,72.10
2018-02-08T06:56:17.782Z,71.50
2018-02-08T06:58:45.360Z,71.60
2018-02-08T07:01:12.970Z,71.90
2018-02-08T07:03:40.586Z,72.30
2018-02-08T07:06:08.187Z,72.00
2018-02-08T07:08:36.509Z,72.40
2018-02-08T07:13:43.065Z,72.20
2018-02-08T07:16:10.624Z,72.00
2018-02-08T07:18:38.236Z,72.20
2018-02-08T07:21:05.783Z,73.00
2018-02-08T07:23:33.437Z,72.80
2018-02-08T07:26:01.012Z,72.00
2018-02-08T07:28:28.569Z,71.90
2018-02-08T07:30:56.175Z,71.60
2018-02-08T07:33:24.664Z,71.30
2018-02-08T07:35:52.225Z,71.20
2018-02-08T07:38:20.648Z,70.50
2018-02-08T07:40:49.111Z,71.10
2018-02-08T07:43:16.867Z,71.10
2018-02-08T07:45:45.216Z,71.00
2018-02-08T07:48:14.541Z,71.00
2018-02-08T07:50:42.625Z,70.70
2018-02-08T07:53:10.281Z,70.60
2018-02-08T07:55:37.857Z,70.80
2018-02-08T07:58:05.481Z,71.00
2018-02-08T08:00:33.039Z,70.10
2018-02-08T08:03:01.452Z,69.80
2018-02-08T08:05:29.010Z,69.80
2018-02-08T08:07:57.384Z,70.60
2018-02-08T08:10:24.998Z,70.60
2018-02-08T08:12:52.608Z,70.30
2018-02-08T08:15:21.774Z,70.60
2018-02-08T08:17:49.378Z,71.50
2018-02-08T08:20:17.783Z,71.40
2018-02-08T08:22:45.408Z,71.40
2018-02-08T08:25:12.943Z,70.70
2018-02-08T08:27:41.796Z,70.30
2018-02-08T08:30:09.775Z,69.80
2018-02-08T08:32:38.227Z,69.80
2018-02-08T08:35:05.845Z,69.40
2018-02-08T08:37:33.428Z,69.30
2018-02-08T08:40:01.020Z,68.90
2018-02-08T08:42:28.673Z,69.10
2018-02-08T08:44:56.272Z,69.10
2018-02-08T08:47:24.871Z,68.70
2018-02-08T08:49:53.275Z,68.40
2018-02-08T08:52:20.846Z,68.30
2018-02-08T08:54:48.502Z,68.70
2018-02-08T08:57:16.995Z,68.80
2018-02-08T08:59:45.170Z,68.80
2018-02-08T09:02:13.520Z,68.80
2018-02-08T09:04:41.967Z,69.50
2018-02-08T09:07:09.588Z,69.40
2018-02-08T09:09:37.139Z,69.20
2018-02-08T09:12:04.800Z,68.40
2018-02-08T09:14:32.359Z,68.30
2018-02-08T09:17:00.675Z,68.50
2018-02-08T09:19:29.064Z,68.50
2018-02-08T09:21:56.678Z,67.30
2018-02-08T09:24:24.435Z,67.10
2018-02-08T09:26:52.032Z,67.60
2018-02-08T09:29:21.501Z,67.40
2018-02-08T09:31:49.139Z,66.70
2018-02-08T09:34:16.772Z,66.70
2018-02-08T09:39:37.656Z,66.40
2018-02-08T09:42:05.261Z,66.30
2018-02-08T09:44:32.909Z,65.90
2018-02-08T09:47:00.597Z,65.70
2018-02-08T09:49:28.968Z,65.80
2018-02-08T09:51:56.693Z,65.80
2018-02-08T09:54:24.278Z,64.80
2018-02-08T09:56:51.849Z,65.60
2018-02-08T09:59:19.548Z,65.90
2018-02-08T10:01:47.177Z,65.50
2018-02-08T10:04:14.833Z,65.10
2018-02-08T10:06:42.387Z,65.10
2018-02-08T10:09:10.219Z,65.50
2018-02-08T10:11:37.788Z,65.10
2018-02-08T10:14:05.480Z,64.20
2018-02-08T10:16:33.118Z,64.10
2018-02-08T10:19:01.518Z,63.70
2018-02-08T10:21:29.346Z,63.60
2018-02-08T10:23:56.965Z,62.80
2018-02-08T10:26:24.623Z,62.40
2018-02-08T10:31:26.413Z,61.60
2018-02-08T10:33:57.277Z,61.90
2018-02-08T10:36:25.551Z,61.40
2018-02-08T10:38:53.323Z,60.90
2018-02-08T10:41:20.958Z,61.10
2018-02-08T10:43:48.567Z,60.70
2018-02-08T10:46:16.365Z,60.60
2018-02-08T10:48:44.032Z,61.20
2018-02-08T10:51:12.396Z,61.20
2018-02-08T10:53:40.029Z,61.20
2018-02-08T10:56:08.385Z,62.00
2018-02-08T10:58:35.989Z,62.10
2018-02-08T11:01:03.593Z,61.70
2018-02-08T11:03:31.264Z,61.40
2018-02-08T11:05:59.615Z,61.00
2018-02-08T11:08:27.255Z,60.90
2018-02-08T11:10:54.815Z,61.30
2018-02-08T11:13:22.504Z,62.30
2018-02-08T11:15:50.149Z,61.10
2018-02-08T11:18:17.858Z,60.90
2018-02-08T11:20:45.429Z,60.90
2018-02-08T11:23:13.776Z,60.20
2018-02-08T11:25:41.405Z,60.20
2018-02-08T11:28:08.973Z,60.10
2018-02-08T11:30:36.659Z,60.50
2018-02-08T11:33:04.403Z,59.40
2018-02-08T11:35:33.279Z,59.60
2018-02-08T11:38:01.668Z,59.90
2018-02-08T11:40:29.290Z,59.80
2018-02-08T11:42:56.840Z,60.90
2018-02-08T11:45:24.507Z,60.80
2018-02-08T11:47:52.088Z,60.10
2018-02-08T11:50:19.801Z,59.80
2018-02-08T11:52:48.289Z,58.90
2018-02-08T11:55:15.864Z,59.20
2018-02-08T11:57:43.567Z,58.30
2018-02-08T12:00:11.816Z,58.70
2018-02-08T12:02:39.964Z,59.10
2018-02-08T12:05:07.566Z,58.40
2018-02-08T12:07:35.238Z,58.10
2018-02-08T12:10:02.962Z,58.80
2018-02-08T12:12:32.183Z,59.20
2018-02-08T12:14:59.903Z,59.20
2018-02-08T12:17:27.504Z,59.20
2018-02-08T12:19:55.124Z,58.40
2018-02-08T12:22:23.534Z,58.40
2018-02-08T12:24:51.232Z,58.10
2018-02-08T12:27:24.619Z,58.00
2018-02-08T12:29:58.542Z,58.20
2018-02-08T12:32:32.476Z,59.70
2018-02-08T12:35:05.818Z,59.70
2018-02-08T12:37:40.119Z,59.80
2018-02-08T12:40:14.068Z,59.80
2018-02-08T12:42:48.089Z,58.50
2018-02-08T12:45:26.063Z,57.80
2018-02-08T12:48:00.099Z,58.00
2018-02-08T12:50:34.133Z,58.30
2018-02-08T12:53:07.614Z,59.10
2018-02-08T12:55:41.543Z,59.30
2018-02-08T12:58:16.183Z,59.60
2018-02-08T13:00:49.689Z,59.50
2018-02-08T13:03:24.116Z,59.00
2018-02-08T13:05:57.574Z,59.00
2018-02-08T13:08:31.276Z,57.50
2018-02-08T13:11:04.483Z,58.10
2018-02-08T13:13:38.039Z,58.40
2018-02-08T13:16:11.258Z,58.00
2018-02-08T13:18:45.583Z,58.10
2018-02-08T13:21:18.953Z,58.10
2018-02-08T13:23:52.278Z,56.60
2018-02-08T13:26:26.966Z,57.20
2018-02-08T13:29:00.457Z,57.30
2018-02-08T13:31:33.796Z,56.90
2018-02-08T13:34:07.344Z,57.00
2018-02-08T13:36:40.428Z,57.90
2018-02-08T13:39:15.821Z,58.40
2018-02-08T13:41:49.747Z,58.50
2018-02-08T13:44:23.047Z,58.20
2018-02-08T13:46:56.143Z,58.40
2018-02-08T13:49:30.688Z,57.80
2018-02-08T13:52:04.239Z,57.20
2018-02-08T13:54:37.597Z,57.10
2018-02-08T13:57:11.492Z,57.10
2018-02-08T13:59:45.028Z,57.40
2018-02-08T14:02:19.494Z,56.70
2018-02-08T14:04:53.457Z,56.70
2018-02-08T14:07:27.353Z,56.70
2018-02-08T14:10:01.062Z,57.50
2018-02-08T14:12:35.194Z,57.60
2018-02-08T14:15:09.032Z,57.60
2018-02-08T14:17:42.878Z,58.00
2018-02-08T14:20:16.321Z,58.90
2018-02-08T14:22:49.992Z,59.20
2018-02-08T14:25:23.185Z,59.70
2018-02-08T14:27:56.285Z,60.10
2018-02-08T14:30:30.400Z,60.80
2018-02-08T14:33:03.503Z,60.50
2018-02-08T14:35:36.781Z,60.80
2018-02-08T14:38:10.127Z,61.30
2018-02-08T14:40:43.351Z,61.60
2018-02-08T14:43:17.587Z,61.60
2018-02-08T14:45:50.963Z,61.90
2018-02-08T14:48:24.359Z,62.90
2018-02-08T14:50:58.761Z,63.30
2018-02-08T14:53:31.870Z,63.40
2018-02-08T14:56:05.303Z,62.90
2018-02-08T14:58:38.513Z,63.20
2018-02-08T15:01:11.510Z,63.50
2018-02-08T15:03:44.687Z,63.70
2018-02-08T15:06:19.157Z,63.50
2018-02-08T15:08:52.577Z,63.60
2018-02-08T15:11:26.558Z,63.70
2018-02-08T15:14:00.827Z,65.30
2018-02-08T15:16:34.821Z,65.20
2018-02-08T15:19:07.968Z,65.20
2018-02-08T15:21:41.357Z,64.80
2018-02-08T15:24:15.934Z,65.70
2018-02-08T15:26:49.020Z,65.70
2018-02-08T15:29:22.446Z,65.30
2018-02-08T15:31:56.223Z,64.30
2018-02-08T15:34:31.292Z,63.90
2018-02-08T15:37:04.492Z,63.60
2018-02-08T15:39:38.894Z,63.80
2018-02-08T15:42:12.195Z,63.90
2018-02-08T15:44:45.538Z,63.90
2018-02-08T15:47:19.793Z,64.10
2018-02-08T15:49:53.244Z,64.60
2018-02-08T15:52:26.750Z,64.60
2018-02-08T15:55:00.154Z,65.10
2018-02-08T15:57:33.679Z,65.10
2018-02-08T16:00:06.888Z,64.50
2018-02-08T16:02:40.218Z,64.30
2018-02-08T16:05:13.433Z,63.90
2018-02-08T16:07:46.481Z,65.10
2018-02-08T16:10:19.629Z,65.20
2018-02-08T16:12:53.220Z,65.00
2018-02-08T16:15:26.453Z,64.40
2018-02-08T16:17:59.851Z,64.60
2018-02-08T16:20:33.036Z,64.40
2018-02-08T16:23:06.376Z,64.50
2018-02-08T16:25:39.774Z,64.40
2018-02-08T16:28:13.340Z,64.80
2018-02-08T16:30:46.864Z,65.20
2018-02-08T16:33:20.633Z,65.00
2018-02-08T16:35:53.963Z,65.00
2018-02-08T16:38:27.523Z,64.30
2018-02-08T16:41:02.457Z,64.30
2018-02-08T16:43:35.835Z,64.40
2018-02-08T16:46:08.948Z,64.70
2018-02-08T16:48:43.320Z,64.50
2018-02-08T16:51:16.568Z,64.40
2018-02-08T16:53:50.343Z,64.50
2018-02-08T16:56:24.519Z,64.70
2018-02-08T16:58:59.025Z,64.80
2018-02-08T17:01:33.384Z,65.40
2018-02-08T17:04:06.828Z,65.30
2018-02-08T17:06:41.000Z,65.20
2018-02-08T17:09:14.422Z,65.20
2018-02-08T17:11:48.216Z,65.40
2018-02-08T17:14:23.168Z,66.40
2018-02-08T17:16:56.217Z,66.30
2018-02-08T17:19:30.142Z,66.50
2018-02-08T17:22:03.145Z,66.30
2018-02-08T17:24:37.446Z,66.20
2018-02-08T17:27:12.151Z,66.20
2018-02-08T17:29:45.817Z,66.10
2018-02-08T17:32:19.845Z,66.50
2018-02-08T17:34:53.329Z,66.60
2018-02-08T17:37:27.415Z,66.70
2018-02-08T17:40:00.919Z,66.80
2018-02-08T17:42:34.275Z,66.60
2018-02-08T17:45:08.669Z,67.30
2018-02-08T17:47:41.700Z,66.70
2018-02-08T17:50:16.358Z,67.10
2018-02-08T17:52:49.425Z,66.90
2018-02-08T17:55:22.951Z,67.40
2018-02-08T17:57:56.279Z,67.20
2018-02-08T18:00:24.030Z,67.10
2018-02-08T18:02:52.418Z,66.50
2018-02-08T18:05:20.036Z,66.50
2018-02-08T18:07:47.653Z,66.60
2018-02-08T18:10:15.284Z,66.50
2018-02-08T18:12:42.954Z,66.60
2018-02-08T18:15:11.322Z,66.80
2018-02-08T18:17:38.950Z,66.70
2018-02-08T18:20:06.549Z,66.90
2018-02-08T18:22:34.116Z,66.70
2018-02-08T18:25:01.863Z,66.80
2018-02-08T18:27:29.482Z,67.40
2018-02-08T18:29:57.046Z,67.50
2018-02-08T18:32:24.688Z,67.50
2018-02-08T18:34:52.305Z,65.80
2018-02-08T18:37:19.875Z,65.80
2018-02-08T18:39:47.438Z,65.80
2018-02-08T18:42:15.044Z,65.80
2018-02-08T18:44:42.677Z,65.80
2018-02-08T18:47:10.310Z,65.30
2018-02-08T18:49:37.898Z,65.50
2018-02-08T18:52:05.666Z,65.60
2018-02-08T18:54:33.301Z,65.60
2018-02-08T18:57:00.909Z,65.20
2018-02-08T18:59:29.229Z,64.90
2018-02-08T19:01:56.847Z,64.90
2018-02-08T19:04:24.548Z,65.20
2018-02-08T19:06:52.174Z,65.40
2018-02-08T19:09:19.815Z,65.80
2018-02-08T19:11:47.410Z,66.40
2018-02-08T19:14:14.973Z,66.20
2018-02-08T19:16:43.323Z,65.30
2018-02-08T19:19:11.835Z,65.20
2018-02-08T19:21:39.431Z,65.20
2018-02-08T19:24:07.013Z,65.30
2018-02-08T19:26:35.367Z,64.40
2018-02-08T19:29:02.970Z,64.30
2018-02-08T19:31:31.305Z,64.30
2018-02-08T19:33:58.921Z,64.40
2018-02-08T19:36:27.326Z,63.90
2018-02-08T19:38:54.986Z,64.00
2018-02-08T19:41:22.595Z,64.40
2018-02-08T19:43:50.922Z,63.80
2018-02-08T19:46:18.538Z,63.70
2018-02-08T19:48:46.197Z,64.00
2018-02-08T19:51:13.906Z,63.80
2018-02-08T19:53:42.292Z,63.90
2018-02-08T19:56:09.861Z,64.70
2018-02-08T19:58:38.217Z,64.90
2018-02-08T20:01:06.716Z,65.10
2018-02-08T20:03:34.293Z,65.00
2018-02-08T20:06:02.314Z,65.00
2018-02-08T20:08:29.869Z,64.70
2018-02-08T20:10:57.483Z,64.30
2018-02-08T20:13:25.093Z,64.50
2018-02-08T20:15:52.730Z,64.70
2018-02-08T20:18:20.279Z,64.90
2018-02-08T20:20:47.818Z,63.90
2018-02-08T20:23:15.531Z,64.40
2018-02-08T20:25:43.089Z,64.60
2018-02-08T20:28:12.448Z,64.30
2018-02-08T20:30:40.147Z,64.30
2018-02-08T20:33:08.478Z,64.40
2018-02-08T20:35:36.073Z,64.30
2018-02-08T20:38:04.689Z,64.30
2018-02-08T20:40:33.038Z,64.60
2018-02-08T20:43:07.054Z,64.30
2018-02-08T20:45:35.421Z,64.60
2018-02-08T20:48:03.752Z,64.90
2018-02-08T20:50:32.245Z,64.80
2018-02-08T20:52:59.823Z,64.40
2018-02-08T20:55:27.396Z,64.60
2018-02-08T20:57:55.050Z,65.10
2018-02-08T21:00:23.406Z,64.60
2018-02-08T21:02:50.979Z,64.60
2018-02-08T21:05:18.674Z,64.70
2018-02-08T21:07:47.207Z,65.00
2018-02-08T21:10:14.764Z,65.60
2018-02-08T21:12:42.455Z,65.20
2018-02-08T21:15:10.887Z,64.50
2018-02-08T21:17:38.525Z,64.50
2018-02-08T21:20:06.270Z,64.60
2018-02-08T21:22:34.840Z,64.90
2018-02-08T21:25:03.150Z,64.70
2018-02-08T21:27:31.969Z,64.60
2018-02-08T21:29:59.531Z,65.30
2018-02-08T21:32:27.096Z,65.10
2018-02-08T21:34:54.945Z,65.10
2018-02-08T21:37:22.590Z,65.20
2018-02-08T21:39:50.137Z,65.50
2018-02-08T21:42:18.028Z,65.20
2018-02-08T21:44:45.620Z,65.30
2018-02-08T21:47:14.921Z,65.80
2018-02-08T21:49:45.360Z,65.70
2018-02-08T21:52:13.515Z,65.80
2018-02-08T21:54:41.924Z,66.20
2018-02-08T21:57:09.703Z,66.20
2018-02-08T21:59:38.231Z,66.40
2018-02-08T22:02:05.962Z,66.70
2018-02-08T22:04:33.656Z,66.20
2018-02-08T22:07:01.976Z,66.90
2018-02-08T22:09:29.519Z,66.30
2018-02-08T22:11:57.265Z,66.60
2018-02-08T22:14:26.601Z,66.70
2018-02-08T22:16:54.141Z,66.60
2018-02-08T22:19:21.862Z,67.30
2018-02-08T22:21:49.436Z,67.50
2018-02-08T22:24:17.739Z,67.70
2018-02-08T22:26:45.537Z,67.70
2018-02-08T22:29:13.104Z,67.70
2018-02-08T22:31:41.865Z,67.50
2018-02-08T22:34:09.451Z,67.40
2018-02-08T22:36:37.072Z,67.00
2018-02-08T22:39:04.652Z,67.30
2018-02-08T22:41:32.333Z,67.70
2018-02-08T22:43:59.917Z,67.80
2018-02-08T22:46:28.280Z,68.10
2018-02-08T22:48:55.833Z,68.00
2018-02-08T22:51:23.457Z,67.40
2018-02-08T22:53:51.118Z,67.50
2018-02-08T22:56:18.677Z,67.50
2018-02-08T22:58:46.256Z,68.10
2018-02-08T23:01:13.809Z,67.90
2018-02-08T23:03:41.407Z,68.00
2018-02-08T23:06:09.726Z,68.90
2018-02-08T23:08:37.322Z,68.90
2018-02-08T23:11:04.991Z,68.80
2018-02-08T23:13:32.540Z,68.40
2018-02-08T23:16:00.148Z,68.20
2018-02-08T23:18:27.695Z,68.30
2018-02-08T23:20:55.294Z,68.20
2018-02-08T23:23:22.920Z,68.40
2018-02-08T23:25:50.576Z,68.40
2018-02-08T23:28:18.153Z,68.10
2018-02-08T23:30:45.701Z,67.90
2018-02-08T23:33:13.273Z,67.50
2018-02-08T23:35:40.807Z,67.70
2018-02-08T23:38:08.422Z,67.80
2018-02-08T23:40:36.013Z,67.60
2018-02-08T23:43:04.343Z,67.60
2018-02-08T23:45:31.955Z,67.60
2018-02-08T23:48:00.330Z,67.60
2018-02-08T23:50:28.718Z,67.80
2018-02-08T23:52:56.276Z,67.80
2018-02-08T23:55:23.844Z,68.00
2018-02-08T23:57:51.482Z,67.90
